Overview Statistics Trail Chart Weather Telemetry Raw packets
 

This is the latest recevied weather packets stored in our database for station/object EA5JMY-10. If no packets are shown the sender has not sent any weather packets the latest 10 day(s).

<< 32 33 34 35 36 37 38 >>
Time Temp. Humidity Pressure Rain* Wind** Luminosity Snow
1787865833 31.11° C 43% 1014 hPa - - - -
1787864933 31.67° C 39% 1014.5 hPa - - - -
1787864032 32.22° C 35% 1015.5 hPa - - - -
1787863133 32.22° C 37% 1015.3 hPa - - - -
1787862232 31.11° C 45% 1014.8 hPa - - - -
1787861332 31.67° C 43% 1014.5 hPa - - - -
1787860432 31.67° C 43% 1014.2 hPa - - - -
1787859532 31.67° C 45% 1013 hPa - - - -
1787858632 31.11° C 47% 1012.6 hPa - - - -
1787857732 30.56° C 49% 1012.3 hPa - - - -
1787856832 31.11° C 49% 1012 hPa - - - -
1787855931 31.67° C 48% 1012.9 hPa - - - -
1787855031 32.22° C 46% 1012.2 hPa - - - -
1787854131 32.78° C 42% 1011.7 hPa - - - -
1787853231 32.78° C 43% 1011.7 hPa - - - -
1787852331 33.33° C 40% 1011.9 hPa - - - -
1787851431 33.33° C 41% 1011.9 hPa - - - -
1787850531 33.89° C 41% 1011.6 hPa - - - -
1787849631 33.89° C 41% 1011.8 hPa - - - -
1787848731 34.44° C 40% 1011.7 hPa - - - -
1787847830 33.89° C 40% 1011.9 hPa - - - -
1787846930 34.44° C 40% 1011.7 hPa - - - -
1787846030 34.44° C 39% 1011.6 hPa - - - -
1787845130 33.89° C 39% 1011.8 hPa - - - -
1787844230 32.78° C 44% 1011.9 hPa - - - -

* Rain since midnight (hover to see other rain measurements)
** Current wind speed in m/s (hover to see current wind gust speed)